createdAt,value
2019-04-20T00:00:41.311Z,5.33
2019-04-20T00:03:05.774Z,5.80
2019-04-20T00:05:33.326Z,5.23
2019-04-20T00:08:07.690Z,5.70
2019-04-20T00:10:34.470Z,5.27
2019-04-20T00:13:13.705Z,5.40
2019-04-20T00:15:28.337Z,5.83
2019-04-20T00:17:58.745Z,5.83
2019-04-20T00:20:29.669Z,6.30
2019-04-20T00:22:59.754Z,5.57
2019-04-20T00:25:54.635Z,6.00
2019-04-20T00:28:30.226Z,5.97
2019-04-20T00:31:04.161Z,5.80
2019-04-20T00:33:27.336Z,5.33
2019-04-20T00:35:44.226Z,5.80
2019-04-20T00:38:11.996Z,6.47
2019-04-20T00:40:39.442Z,5.83
2019-04-20T00:43:06.778Z,5.70
2019-04-20T00:45:36.611Z,5.90
2019-04-20T00:48:13.628Z,5.90
2019-04-20T00:50:48.778Z,5.67
2019-04-20T00:53:10.308Z,5.87
2019-04-20T00:55:31.774Z,5.40
2019-04-20T00:58:10.385Z,5.67
2019-04-20T01:00:54.278Z,5.43
2019-04-20T01:03:19.767Z,5.43
2019-04-20T01:05:58.252Z,5.93
2019-04-20T01:08:27.487Z,5.73
2019-04-20T01:10:57.659Z,5.40
2019-04-20T01:13:26.658Z,5.87
2019-04-20T01:15:58.806Z,6.20
2019-04-20T01:18:22.890Z,5.97
2019-04-20T01:20:51.399Z,6.17
2019-04-20T01:23:23.747Z,6.40
2019-04-20T01:25:55.816Z,6.30
2019-04-20T01:28:35.583Z,7.03
2019-04-20T01:31:03.725Z,6.60
2019-04-20T01:33:31.825Z,6.63
2019-04-20T01:36:01.922Z,6.67
2019-04-20T01:38:30.759Z,6.87
2019-04-20T01:40:44.575Z,6.80
2019-04-20T01:43:12.160Z,7.77
2019-04-20T01:45:42.705Z,6.47
2019-04-20T01:48:13.093Z,6.07
2019-04-20T01:50:47.339Z,6.40
2019-04-20T01:53:16.415Z,6.43
2019-04-20T01:55:50.729Z,6.77
2019-04-20T01:58:31.232Z,6.63
2019-04-20T02:00:46.941Z,6.77
2019-04-20T02:03:38.440Z,6.47
2019-04-20T02:06:12.810Z,6.90
2019-04-20T02:08:37.832Z,6.87
2019-04-20T02:11:07.397Z,7.33
2019-04-20T02:13:43.659Z,7.10
2019-04-20T02:16:11.438Z,6.60
2019-04-20T02:18:44.235Z,6.37
2019-04-20T02:21:19.857Z,7.17
2019-04-20T02:23:43.312Z,6.27
2019-04-20T02:26:02.879Z,5.73
2019-04-20T02:28:57.153Z,6.70
2019-04-20T02:34:16.515Z,6.47
2019-04-20T02:37:07.609Z,6.67
2019-04-20T02:39:28.728Z,6.40
2019-04-20T02:42:34.198Z,6.40
2019-04-20T02:44:21.647Z,6.67
2019-04-20T02:46:49.266Z,6.57
2019-04-20T02:49:30.865Z,6.30
2019-04-20T02:51:46.691Z,5.87
2019-04-20T02:56:48.098Z,6.30
2019-04-20T02:59:42.257Z,6.43
2019-04-20T03:01:31.090Z,6.50
2019-04-20T03:03:48.118Z,6.73
2019-04-20T03:06:22.771Z,7.20
2019-04-20T03:09:04.090Z,6.20
2019-04-20T03:11:40.522Z,6.63
2019-04-20T03:13:58.037Z,6.30
2019-04-20T03:16:24.255Z,6.83
2019-04-20T03:18:54.627Z,6.00
2019-04-20T03:21:33.309Z,6.50
2019-04-20T03:24:09.628Z,6.47
2019-04-20T03:26:35.254Z,7.33
2019-04-20T03:29:18.869Z,7.20
2019-04-20T03:36:59.221Z,7.03
2019-04-20T03:39:23.275Z,6.73
2019-04-20T03:41:43.062Z,6.63
2019-04-20T03:44:10.556Z,7.57
2019-04-20T03:46:41.934Z,7.50
2019-04-20T03:49:20.054Z,8.87
2019-04-20T03:51:55.947Z,10.20
2019-04-20T03:54:21.340Z,10.63
2019-04-20T03:56:54.389Z,9.87
2019-04-20T03:59:27.562Z,8.93
2019-04-20T04:02:23.497Z,8.10
2019-04-20T04:04:34.134Z,8.83
2019-04-20T04:06:49.503Z,8.77
2019-04-20T04:09:23.615Z,8.83
2019-04-20T04:11:55.617Z,9.17
2019-04-20T04:14:09.489Z,8.90
2019-04-20T04:16:45.691Z,8.40
2019-04-20T04:19:16.164Z,8.30
2019-04-20T04:21:49.648Z,8.60
2019-04-20T04:24:17.070Z,8.17
2019-04-20T04:26:52.626Z,7.20
2019-04-20T04:29:25.357Z,7.77
2019-04-20T04:32:03.413Z,7.27
2019-04-20T04:34:18.765Z,7.00
2019-04-20T04:36:53.944Z,7.50
2019-04-20T04:39:26.374Z,7.17
2019-04-20T04:41:51.219Z,7.77
2019-04-20T04:44:14.752Z,7.00
2019-04-20T04:46:29.267Z,7.10
2019-04-20T04:49:05.394Z,7.80
2019-04-20T04:51:38.577Z,6.93
2019-04-20T04:54:03.676Z,6.40
2019-04-20T04:56:26.812Z,6.73
2019-04-20T04:58:53.882Z,6.93
2019-04-20T05:01:25.907Z,7.07
2019-04-20T05:04:14.683Z,6.70
2019-04-20T05:06:33.181Z,7.03
2019-04-20T05:08:54.860Z,6.97
2019-04-20T05:11:19.494Z,6.80
2019-04-20T05:13:54.716Z,6.77
2019-04-20T05:16:40.122Z,7.53
2019-04-20T05:19:09.453Z,10.47
2019-04-20T05:21:38.978Z,14.40
2019-04-20T05:24:10.003Z,15.80
2019-04-20T05:26:45.980Z,9.80
2019-04-20T05:29:02.672Z,7.10
2019-04-20T05:31:23.455Z,7.70
2019-04-20T05:34:15.735Z,7.13
2019-04-20T05:36:41.241Z,7.73
2019-04-20T05:39:14.418Z,7.87
2019-04-20T05:41:38.685Z,8.43
2019-04-20T05:44:06.419Z,7.63
2019-04-20T05:46:37.090Z,7.87
2019-04-20T05:49:10.035Z,7.07
2019-04-20T05:54:10.794Z,19.10
2019-04-20T05:56:40.046Z,13.30
2019-04-20T05:59:05.860Z,9.70
2019-04-20T06:01:37.961Z,9.23
2019-04-20T06:04:02.504Z,8.83
2019-04-20T06:06:32.833Z,8.40
2019-04-20T06:09:05.171Z,14.40
2019-04-20T06:11:31.988Z,17.50
2019-04-20T06:13:50.613Z,11.67
2019-04-20T06:16:40.887Z,9.83
2019-04-20T06:19:15.586Z,8.60
2019-04-20T06:21:52.513Z,9.67
2019-04-20T06:24:33.266Z,12.10
2019-04-20T06:27:03.255Z,12.73
2019-04-20T06:29:31.290Z,11.40
2019-04-20T06:32:05.072Z,15.37
2019-04-20T06:37:10.079Z,14.03
2019-04-20T06:42:15.121Z,13.30
2019-04-20T06:44:32.009Z,12.13
2019-04-20T06:47:03.039Z,12.33
2019-04-20T06:51:59.334Z,11.90
2019-04-20T06:54:45.193Z,10.00
2019-04-20T06:57:18.095Z,8.30
2019-04-20T06:59:45.867Z,9.30
2019-04-20T07:04:48.621Z,10.87
2019-04-20T07:07:14.148Z,14.20
2019-04-20T07:09:55.705Z,9.27
2019-04-20T07:12:12.618Z,8.43
2019-04-20T07:14:34.102Z,8.43
2019-04-20T07:17:26.925Z,7.67
2019-04-20T07:20:00.025Z,7.40
2019-04-20T07:25:21.383Z,7.30
2019-04-20T07:27:35.518Z,17.03
2019-04-20T07:30:03.941Z,15.53
2019-04-20T07:32:41.880Z,8.77
2019-04-20T07:35:03.524Z,7.53
2019-04-20T07:40:07.466Z,6.97
2019-04-20T07:42:37.489Z,6.90
2019-04-20T07:45:10.014Z,6.70
2019-04-20T07:47:34.491Z,25.57
2019-04-20T07:49:56.803Z,8.83
2019-04-20T07:52:08.140Z,7.30
2019-04-20T07:55:22.189Z,6.83
2019-04-20T07:57:24.740Z,6.93
2019-04-20T07:59:56.194Z,6.67
2019-04-20T08:02:34.620Z,12.20
2019-04-20T08:05:02.161Z,9.20
2019-04-20T08:07:17.457Z,7.07
2019-04-20T08:09:52.801Z,6.80
2019-04-20T08:12:51.759Z,6.50
2019-04-20T08:15:24.044Z,6.27
2019-04-20T08:18:06.522Z,6.23
2019-04-20T08:20:09.418Z,6.60
2019-04-20T08:22:42.099Z,6.43
2019-04-20T08:25:06.994Z,6.73
2019-04-20T08:27:23.734Z,6.10
2019-04-20T08:30:12.497Z,8.00
2019-04-20T08:32:54.229Z,6.80
2019-04-20T08:35:37.207Z,6.00
2019-04-20T08:38:14.954Z,7.35
2019-04-20T08:40:31.361Z,6.72
2019-04-20T08:43:12.882Z,7.87
2019-04-20T08:45:34.926Z,6.62
2019-04-20T08:48:05.590Z,6.95
2019-04-20T08:50:28.123Z,6.03
2019-04-20T08:53:08.892Z,6.85
2019-04-20T08:55:23.372Z,6.42
2019-04-20T08:57:35.586Z,7.35
2019-04-20T09:00:06.579Z,6.70
2019-04-20T09:02:34.662Z,6.75
2019-04-20T09:05:09.086Z,7.03
2019-04-20T09:07:40.842Z,7.25
2019-04-20T09:10:28.141Z,7.42
2019-04-20T09:12:45.034Z,7.12
2019-04-20T09:15:01.606Z,7.17
2019-04-20T09:17:45.248Z,7.53
2019-04-20T09:20:17.433Z,7.20
2019-04-20T09:23:02.177Z,6.85
2019-04-20T09:25:48.737Z,7.20
2019-04-20T09:27:57.805Z,6.87
2019-04-20T09:30:33.341Z,7.10
2019-04-20T09:33:14.608Z,6.62
2019-04-20T09:35:39.129Z,6.45
2019-04-20T09:38:09.814Z,6.53
2019-04-20T09:40:41.756Z,7.70
2019-04-20T09:42:58.079Z,7.00
2019-04-20T09:45:38.209Z,6.92
2019-04-20T09:48:06.912Z,6.55
2019-04-20T09:50:47.581Z,7.50
2019-04-20T09:53:19.755Z,6.62
2019-04-20T09:55:50.570Z,7.03
2019-04-20T09:58:17.043Z,6.67
2019-04-20T10:00:55.301Z,7.40
2019-04-20T10:03:04.571Z,7.22
2019-04-20T10:05:32.021Z,11.53
2019-04-20T10:08:03.355Z,8.10
2019-04-20T10:10:35.044Z,7.35
2019-04-20T10:12:58.329Z,7.95
2019-04-20T10:15:29.579Z,7.28
2019-04-20T10:17:56.074Z,7.42
2019-04-20T10:20:29.793Z,6.90
2019-04-20T10:22:54.348Z,7.03
2019-04-20T10:25:22.612Z,7.03
2019-04-20T10:27:49.976Z,7.67
2019-04-20T10:30:18.554Z,7.60
2019-04-20T10:32:50.463Z,7.58
2019-04-20T10:35:17.498Z,7.55
2019-04-20T10:37:47.205Z,7.37
2019-04-20T10:40:30.715Z,7.28
2019-04-20T10:42:44.131Z,8.73
2019-04-20T10:45:12.758Z,9.33
2019-04-20T10:47:41.074Z,7.62
2019-04-20T10:50:09.311Z,7.15
2019-04-20T10:52:38.027Z,7.72
2019-04-20T10:55:06.255Z,7.72
2019-04-20T10:57:33.673Z,7.40
2019-04-20T11:00:01.787Z,7.42
2019-04-20T11:02:29.890Z,7.03
2019-04-20T11:04:57.196Z,7.00
2019-04-20T11:07:24.514Z,7.50
2019-04-20T11:10:04.408Z,7.47
2019-04-20T11:12:22.133Z,7.28
2019-04-20T11:14:50.215Z,7.92
2019-04-20T11:17:18.224Z,7.80
2019-04-20T11:19:45.504Z,8.00
2019-04-20T11:22:12.842Z,7.43
2019-04-20T11:24:40.707Z,7.58
2019-04-20T11:27:08.381Z,7.72
2019-04-20T11:29:36.040Z,7.62
2019-04-20T11:32:05.170Z,7.55
2019-04-20T11:34:35.375Z,7.72
2019-04-20T11:37:03.290Z,7.03
2019-04-20T11:39:30.848Z,7.87
2019-04-20T11:41:59.504Z,7.45
2019-04-20T11:44:30.315Z,6.55
2019-04-20T11:46:56.758Z,6.97
2019-04-20T11:49:24.110Z,7.08
2019-04-20T11:51:55.288Z,6.90
2019-04-20T11:54:24.234Z,7.47
2019-04-20T11:56:53.291Z,7.55
2019-04-20T11:59:23.484Z,6.92
2019-04-20T12:02:01.994Z,7.28
2019-04-20T12:04:40.703Z,7.58
2019-04-20T12:06:56.980Z,6.58
2019-04-20T12:09:25.924Z,6.92
2019-04-20T12:12:06.903Z,8.08
2019-04-20T12:14:23.001Z,7.12
2019-04-20T12:16:50.333Z,6.60
2019-04-20T12:19:18.666Z,6.42
2019-04-20T12:21:47.507Z,6.33
2019-04-20T12:24:16.261Z,5.95
2019-04-20T12:26:44.797Z,6.35
2019-04-20T12:29:14.004Z,5.85
2019-04-20T12:31:45.886Z,5.25
2019-04-20T12:34:10.824Z,5.22
2019-04-20T12:36:39.498Z,5.30
2019-04-20T12:39:09.010Z,5.45
2019-04-20T12:41:43.393Z,6.08
2019-04-20T12:44:05.849Z,5.28
2019-04-20T12:46:34.064Z,5.15
2019-04-20T12:49:01.837Z,6.50
2019-04-20T12:51:33.757Z,6.75
2019-04-20T12:53:58.465Z,5.55
2019-04-20T12:56:26.594Z,5.80
2019-04-20T12:58:53.974Z,5.83
2019-04-20T13:01:22.848Z,5.62
2019-04-20T13:03:50.715Z,5.90
2019-04-20T13:06:19.483Z,5.40
2019-04-20T13:08:51.846Z,5.10
2019-04-20T13:11:18.413Z,5.03
2019-04-20T13:13:50.338Z,5.53
2019-04-20T13:16:20.598Z,5.80
2019-04-20T13:18:53.060Z,5.03
2019-04-20T13:21:21.074Z,7.17
2019-04-20T13:23:49.038Z,7.00
2019-04-20T13:26:17.515Z,5.50
2019-04-20T13:28:46.453Z,5.00
2019-04-20T13:31:14.170Z,5.37
2019-04-20T13:33:43.257Z,5.33
2019-04-20T13:36:12.383Z,4.95
2019-04-20T13:38:40.401Z,5.03
2019-04-20T13:41:09.401Z,5.17
2019-04-20T13:43:37.634Z,5.03
2019-04-20T13:46:05.086Z,5.45
2019-04-20T13:48:33.042Z,5.55
2019-04-20T13:51:02.226Z,5.22
2019-04-20T13:53:30.157Z,4.90
2019-04-20T13:55:58.212Z,5.20
2019-04-20T13:58:43.595Z,5.15
2019-04-20T14:01:13.036Z,4.72
2019-04-20T14:03:40.814Z,4.92
2019-04-20T14:06:09.000Z,4.92
2019-04-20T14:08:37.443Z,4.37
2019-04-20T14:11:05.235Z,4.80
2019-04-20T14:13:40.357Z,5.35
2019-04-20T14:16:03.057Z,4.95
2019-04-20T14:18:31.158Z,4.92
2019-04-20T14:20:58.827Z,5.17
2019-04-20T14:23:27.062Z,5.08
2019-04-20T14:25:56.640Z,4.55
2019-04-20T14:28:24.909Z,5.37
2019-04-20T14:30:53.808Z,5.05
2019-04-20T14:33:24.039Z,4.97
2019-04-20T14:35:52.716Z,5.10
2019-04-20T14:38:20.247Z,5.65
2019-04-20T14:40:48.388Z,5.60
2019-04-20T14:43:17.124Z,4.75
2019-04-20T14:45:45.023Z,5.47
2019-04-20T14:48:12.569Z,5.10
2019-04-20T14:50:41.287Z,7.42
2019-04-20T14:53:09.507Z,5.62
2019-04-20T14:55:37.865Z,5.25
2019-04-20T14:58:08.881Z,5.22
2019-04-20T15:00:39.603Z,5.22
2019-04-20T15:03:28.205Z,4.90
2019-04-20T15:05:57.715Z,5.35
2019-04-20T15:08:25.290Z,5.12
2019-04-20T15:10:52.808Z,5.03
2019-04-20T15:13:20.458Z,4.85
2019-04-20T15:15:48.529Z,5.10
2019-04-20T15:18:17.755Z,4.87
2019-04-20T15:20:47.776Z,5.00
2019-04-20T15:23:17.472Z,5.15
2019-04-20T15:25:46.468Z,4.75
2019-04-20T15:28:14.577Z,4.80
2019-04-20T15:30:42.685Z,4.55
2019-04-20T15:33:09.994Z,4.37
2019-04-20T15:35:37.889Z,4.62
2019-04-20T15:38:05.282Z,4.70
2019-04-20T15:40:33.052Z,4.95
2019-04-20T15:43:08.337Z,4.95
2019-04-20T15:45:31.392Z,4.70
2019-04-20T15:47:59.547Z,4.70
2019-04-20T15:50:27.680Z,4.95
2019-04-20T15:52:57.337Z,4.62
2019-04-20T15:55:30.083Z,4.95
2019-04-20T15:57:55.423Z,5.15
2019-04-20T16:00:24.483Z,4.87
2019-04-20T16:02:53.775Z,5.62
2019-04-20T16:05:31.569Z,5.00
2019-04-20T16:08:03.960Z,5.78
2019-04-20T16:10:30.821Z,6.05
2019-04-20T16:13:12.032Z,5.90
2019-04-20T16:15:27.837Z,5.35
2019-04-20T16:17:55.151Z,5.17
2019-04-20T16:20:25.001Z,5.10
2019-04-20T16:22:52.266Z,5.35
2019-04-20T16:25:23.365Z,5.67
2019-04-20T16:27:51.836Z,5.47
2019-04-20T16:30:19.920Z,5.37
2019-04-20T16:32:48.191Z,5.08
2019-04-20T16:35:16.313Z,5.30
2019-04-20T16:37:44.385Z,5.67
2019-04-20T16:40:13.627Z,5.58
2019-04-20T16:42:42.741Z,5.45
2019-04-20T16:45:11.598Z,5.30
2019-04-20T16:47:39.977Z,5.70
2019-04-20T16:50:08.755Z,5.28
2019-04-20T16:52:36.820Z,5.90
2019-04-20T16:55:06.498Z,5.35
2019-04-20T16:57:34.231Z,5.60
2019-04-20T17:00:03.101Z,5.55
2019-04-20T17:02:31.866Z,6.65
2019-04-20T17:04:59.363Z,6.53
2019-04-20T17:07:29.045Z,7.35
2019-04-20T17:09:58.001Z,6.45
2019-04-20T17:12:25.786Z,6.28
2019-04-20T17:14:53.677Z,5.37
2019-04-20T17:17:21.968Z,6.00
2019-04-20T17:19:49.421Z,5.70
2019-04-20T17:22:17.255Z,6.33
2019-04-20T17:24:45.348Z,6.07
2019-04-20T17:27:27.033Z,6.33
2019-04-20T17:30:03.086Z,5.87
2019-04-20T17:32:33.698Z,6.65
2019-04-20T17:35:15.825Z,6.47
2019-04-20T17:37:37.684Z,6.85
2019-04-20T17:40:22.109Z,7.47
2019-04-20T17:42:41.612Z,6.67
2019-04-20T17:45:06.654Z,6.92
2019-04-20T17:47:47.162Z,6.53
2019-04-20T17:50:18.903Z,6.87
2019-04-20T17:52:46.162Z,6.35
2019-04-20T17:55:22.236Z,6.80
2019-04-20T17:57:39.328Z,6.30
2019-04-20T18:00:14.811Z,6.80
2019-04-20T18:03:00.632Z,5.90
2019-04-20T18:05:44.664Z,5.73
2019-04-20T18:08:06.241Z,5.90
2019-04-20T18:10:30.324Z,8.50
2019-04-20T18:12:49.782Z,8.90
2019-04-20T18:15:31.532Z,7.33
2019-04-20T18:18:19.001Z,6.60
2019-04-20T18:20:30.786Z,6.50
2019-04-20T18:22:58.842Z,6.10
2019-04-20T18:25:54.850Z,6.10
2019-04-20T18:28:11.150Z,6.60
2019-04-20T18:30:50.497Z,6.37
2019-04-20T18:33:13.580Z,6.67
2019-04-20T18:35:45.372Z,5.90
2019-04-20T18:38:14.871Z,8.70
2019-04-20T18:40:49.327Z,6.77
2019-04-20T18:43:14.995Z,6.17
2019-04-20T18:45:58.204Z,5.80
2019-04-20T18:48:33.970Z,6.20
2019-04-20T18:50:40.786Z,6.07
2019-04-20T18:53:05.944Z,6.37
2019-04-20T18:55:46.314Z,6.77
2019-04-20T18:58:04.784Z,7.97
2019-04-20T19:00:38.870Z,6.77
2019-04-20T19:03:09.733Z,7.50
2019-04-20T19:05:31.674Z,6.80
2019-04-20T19:08:04.680Z,6.40
2019-04-20T19:10:33.079Z,6.83
2019-04-20T19:13:05.909Z,8.87
2019-04-20T19:16:04.323Z,6.60
2019-04-20T19:18:45.264Z,6.30
2019-04-20T19:21:03.437Z,6.13
2019-04-20T19:23:33.810Z,6.20
2019-04-20T19:26:02.433Z,6.53
2019-04-20T19:28:36.809Z,7.47
2019-04-20T19:31:11.430Z,7.00
2019-04-20T19:33:37.782Z,11.63
2019-04-20T19:36:12.149Z,7.57
2019-04-20T19:38:41.768Z,6.57
2019-04-20T19:41:05.861Z,7.30
2019-04-20T19:43:31.555Z,7.20
2019-04-20T19:46:37.907Z,6.37
2019-04-20T19:48:39.122Z,6.33
2019-04-20T19:51:19.205Z,6.23
2019-04-20T19:53:45.379Z,7.40
2019-04-20T19:56:03.494Z,6.60
2019-04-20T19:58:30.321Z,6.27
2019-04-20T20:00:52.100Z,6.90
2019-04-20T20:03:19.810Z,6.30
2019-04-20T20:05:49.921Z,6.47
2019-04-20T20:08:21.544Z,6.93
2019-04-20T20:10:46.191Z,6.93
2019-04-20T20:13:14.961Z,7.23
2019-04-20T20:15:43.686Z,9.73
2019-04-20T20:18:30.648Z,7.07
2019-04-20T20:20:59.593Z,7.20
2019-04-20T20:23:11.966Z,7.17
2019-04-20T20:25:44.868Z,7.20
2019-04-20T20:28:21.535Z,7.40
2019-04-20T20:30:53.817Z,7.10
2019-04-20T20:33:24.159Z,7.00
2019-04-20T20:35:50.147Z,6.97
2019-04-20T20:38:16.829Z,7.30
2019-04-20T20:40:43.508Z,7.63
2019-04-20T20:43:14.794Z,8.27
2019-04-20T20:45:39.679Z,8.17
2019-04-20T20:48:21.003Z,7.50
2019-04-20T20:50:48.875Z,7.87
2019-04-20T20:53:12.491Z,7.90
2019-04-20T20:55:38.249Z,8.17
2019-04-20T20:58:08.475Z,8.97
2019-04-20T21:00:39.859Z,9.43
2019-04-20T21:03:02.561Z,10.10
2019-04-20T21:05:27.383Z,10.43
2019-04-20T21:07:55.447Z,12.37
2019-04-20T21:10:31.000Z,12.63
2019-04-20T21:12:57.469Z,13.17
2019-04-20T21:15:24.269Z,14.20
2019-04-20T21:18:18.964Z,14.30
2019-04-20T21:20:45.391Z,14.40
2019-04-20T21:23:07.215Z,14.47
2019-04-20T21:25:33.617Z,14.10
2019-04-20T21:27:57.032Z,19.23
2019-04-20T21:30:32.999Z,15.40
2019-04-20T21:32:57.229Z,14.67
2019-04-20T21:35:23.859Z,13.90
2019-04-20T21:37:58.844Z,12.47
2019-04-20T21:40:27.958Z,13.33
2019-04-20T21:42:57.216Z,12.40
2019-04-20T21:45:24.877Z,11.27
2019-04-20T21:47:48.410Z,11.10
2019-04-20T21:50:30.027Z,11.73
2019-04-20T21:52:53.310Z,12.63
2019-04-20T21:55:16.497Z,12.83
2019-04-20T21:57:51.574Z,12.07
2019-04-20T22:00:44.593Z,12.60
2019-04-20T22:03:11.343Z,12.63
2019-04-20T22:05:38.144Z,20.97
2019-04-20T22:08:09.590Z,14.50
2019-04-20T22:10:34.970Z,13.83
2019-04-20T22:13:03.188Z,13.43
2019-04-20T22:15:35.023Z,13.80
2019-04-20T22:18:06.815Z,13.67
2019-04-20T22:20:37.239Z,13.87
2019-04-20T22:23:15.133Z,14.37
2019-04-20T22:25:49.023Z,14.27
2019-04-20T22:28:00.639Z,13.53
2019-04-20T22:30:28.493Z,14.20
2019-04-20T22:32:59.474Z,14.70
2019-04-20T22:35:26.754Z,14.37
2019-04-20T22:38:08.926Z,13.70
2019-04-20T22:40:35.228Z,13.57
2019-04-20T22:43:04.256Z,13.70
2019-04-20T22:45:34.009Z,14.60
2019-04-20T22:48:08.228Z,14.00
2019-04-20T22:50:41.389Z,13.80
2019-04-20T22:53:21.672Z,14.07
2019-04-20T22:55:57.436Z,13.33
2019-04-20T22:58:04.634Z,14.33
2019-04-20T23:00:37.324Z,14.27
2019-04-20T23:02:56.638Z,15.47
2019-04-20T23:05:24.701Z,15.43
2019-04-20T23:07:52.933Z,15.10
2019-04-20T23:10:29.337Z,14.50
2019-04-20T23:12:54.215Z,14.73
2019-04-20T23:15:20.524Z,15.07
2019-04-20T23:17:52.092Z,14.30
2019-04-20T23:20:26.391Z,15.00
2019-04-20T23:22:51.151Z,13.60
2019-04-20T23:25:17.552Z,14.03
2019-04-20T23:27:45.798Z,13.30
2019-04-20T23:30:23.157Z,14.03
2019-04-20T23:32:44.132Z,13.53
2019-04-20T23:35:18.120Z,13.23
2019-04-20T23:37:42.294Z,13.63
2019-04-20T23:40:13.203Z,13.80
2019-04-20T23:42:47.866Z,14.13
2019-04-20T23:45:16.983Z,14.30
2019-04-20T23:47:53.228Z,14.40
2019-04-20T23:50:38.189Z,13.27
2019-04-20T23:53:06.605Z,13.43
2019-04-20T23:55:17.000Z,13.23
2019-04-20T23:57:46.018Z,13.30
